Alma, Wisconsin
Current Conditions -  °F | °C
As of 9:54 PM on Saturday 20 Dec 2014 (Local Time) from KONA Reporting Station
Haze Haze  
Wind Chill: 34°   Ceiling: 1200
Heat Index: 34°   Visibility: 4mi
Dew Point: 32°   Wind: 3mph
Humidity: 93%   Direction: 160°SSE
Pressure: 30.16"   Gusts: NA
Location:  44.32°N, 91.91°W
Report Text: KONA 210354Z AUTO 16003KT 4SM BR OVC012 01/00 A3016 RMK AO2
Loading
Personal Weather Stations






























Interactive Weather Map New forecast layout! Learn more

10-Day Weather Forecast

Advertisements
Track Severe Weather on mobile